Terminal Aerodrome Forecast
Issued by NWS

Home | Current Version | Previous Version | Text Only | Print | Product List | Glossary On
Versions: 1 2 3 4 5 6 7 8 9 10 11 12 13 14
000
FTUS42 KMLB 191135
TAFISM
TAF
KISM 191135Z 1912/2012 00000KT P6SM OVC250
     FM191400 19006KT P6SM SCT030 BKN250
     FM191700 25008KT P6SM VCTS SCT040CB BKN250
     FM200200 20003KT P6SM FEW040 BKN250
     FM200800 18005KT P6SM SCT020 BKN100=

USA.gov is the U.S. government's official web portal to all federal, state and local government web resources and services.